createdAt,value
2022-12-19T00:01:56.361Z,55.45
2022-12-19T00:04:23.409Z,61.45
2022-12-19T00:06:50.296Z,63.20
2022-12-19T00:09:17.037Z,59.45
2022-12-19T00:11:46.124Z,57.43
2022-12-19T00:14:13.005Z,52.50
2022-12-19T00:16:47.239Z,58.30
2022-12-19T00:19:15.966Z,55.38
2022-12-19T00:21:42.744Z,63.83
2022-12-19T00:24:21.384Z,59.70
2022-12-19T00:26:48.857Z,62.05
2022-12-19T00:29:17.203Z,61.08
2022-12-19T00:31:44.142Z,62.28
2022-12-19T00:34:10.894Z,58.45
2022-12-19T00:36:37.778Z,54.93
2022-12-19T00:39:08.517Z,58.95
2022-12-19T00:41:41.320Z,62.85
2022-12-19T00:44:14.464Z,56.95
2022-12-19T00:46:41.616Z,61.63
2022-12-19T00:49:09.333Z,61.63
2022-12-19T00:51:37.742Z,61.00
2022-12-19T00:54:06.774Z,56.75
2022-12-19T00:56:37.479Z,64.38
2022-12-19T00:59:06.138Z,63.25
2022-12-19T01:01:39.495Z,59.90
2022-12-19T01:06:57.900Z,59.08
2022-12-19T01:09:28.966Z,59.13
2022-12-19T01:12:14.534Z,58.00
2022-12-19T01:14:41.331Z,60.08
2022-12-19T01:17:08.067Z,68.70
2022-12-19T01:19:41.911Z,64.37
2022-12-19T01:22:11.134Z,60.67
2022-12-19T01:24:39.600Z,63.20
2022-12-19T01:27:06.374Z,64.97
2022-12-19T01:29:36.672Z,59.42
2022-12-19T01:32:18.410Z,58.08
2022-12-19T01:34:45.208Z,57.87
2022-12-19T01:37:12.025Z,61.10
2022-12-19T01:39:38.977Z,62.67
2022-12-19T01:42:23.075Z,64.88
2022-12-19T01:45:12.119Z,57.72
2022-12-19T01:47:45.770Z,59.30
2022-12-19T01:50:38.048Z,59.90
2022-12-19T01:53:11.059Z,61.75
2022-12-19T01:55:41.035Z,54.83
2022-12-19T01:58:09.127Z,62.22
2022-12-19T02:00:36.146Z,61.80
2022-12-19T04:49:33.520Z,52.00
2022-12-19T04:54:42.569Z,54.97
2022-12-19T04:57:09.556Z,63.42
2022-12-19T05:07:34.873Z,61.15
2022-12-19T05:10:01.690Z,59.63
2022-12-19T05:12:37.499Z,59.92
2022-12-19T05:15:06.161Z,61.28
2022-12-19T05:17:32.912Z,59.55
2022-12-19T05:19:59.755Z,67.27
2022-12-19T05:22:26.499Z,60.15
2022-12-19T05:24:54.432Z,60.40
2022-12-19T05:27:21.303Z,64.75
2022-12-19T05:29:48.172Z,60.00
2022-12-19T05:32:15.350Z,54.42
2022-12-19T05:34:42.153Z,61.53
2022-12-19T05:37:09.080Z,60.95
2022-12-19T05:39:36.142Z,67.75
2022-12-19T05:42:07.364Z,60.25
2022-12-19T05:44:37.659Z,63.00
2022-12-19T05:47:04.543Z,58.87
2022-12-19T05:49:31.287Z,61.58
2022-12-19T05:51:58.437Z,61.97
2022-12-19T05:54:26.498Z,54.38
2022-12-19T05:56:53.231Z,58.60
2022-12-19T05:59:20.083Z,56.87
2022-12-19T06:01:46.930Z,50.92
2022-12-19T06:04:14.959Z,56.45
2022-12-19T06:06:41.749Z,62.67
2022-12-19T06:09:08.563Z,64.37
2022-12-19T06:11:35.469Z,59.33
2022-12-19T06:14:02.467Z,71.57
2022-12-19T06:16:29.603Z,63.42
2022-12-19T06:18:58.039Z,65.63
2022-12-19T06:21:26.244Z,70.82
2022-12-19T06:23:54.749Z,64.15
2022-12-19T06:26:22.680Z,58.42
2022-12-19T06:28:53.360Z,59.72
2022-12-19T06:31:22.127Z,59.60
2022-12-19T06:33:49.299Z,50.88
2022-12-19T06:36:22.169Z,68.30
2022-12-19T06:38:50.621Z,65.47
2022-12-19T06:41:37.252Z,63.47
2022-12-19T06:44:06.448Z,61.70
2022-12-19T06:46:33.629Z,62.88
2022-12-19T06:49:00.982Z,62.08
2022-12-19T06:51:28.121Z,64.93
2022-12-19T06:53:55.549Z,56.67
2022-12-19T06:56:22.879Z,62.53
2022-12-19T07:01:38.793Z,67.70
2022-12-19T07:04:07.597Z,61.13
2022-12-19T07:06:35.774Z,61.47
2022-12-19T07:09:02.643Z,67.15
2022-12-19T07:11:29.550Z,67.38
2022-12-19T07:13:58.448Z,67.50
2022-12-19T07:16:26.695Z,62.17
2022-12-19T07:18:54.058Z,61.67
2022-12-19T07:21:22.221Z,59.58
2022-12-19T07:23:49.368Z,60.60
2022-12-19T07:26:16.232Z,61.08
2022-12-19T07:28:44.707Z,59.97
2022-12-19T07:31:11.542Z,66.78
2022-12-19T07:33:38.409Z,59.30
2022-12-19T07:36:07.544Z,59.85
2022-12-19T07:38:34.376Z,59.65
2022-12-19T07:41:02.261Z,59.03
2022-12-19T07:43:29.454Z,57.25
2022-12-19T07:45:57.011Z,56.50
2022-12-19T07:48:24.481Z,58.13
2022-12-19T07:50:51.551Z,56.88
2022-12-19T07:53:18.406Z,57.50
2022-12-19T07:55:45.220Z,53.30
2022-12-19T07:58:12.158Z,57.63
2022-12-19T08:00:39.021Z,52.78
2022-12-19T08:03:05.843Z,54.10
2022-12-19T08:05:34.981Z,54.28
2022-12-19T08:08:01.892Z,52.17
2022-12-19T08:10:28.670Z,49.45
2022-12-19T08:12:55.546Z,55.70
2022-12-19T08:15:22.307Z,55.67
2022-12-19T08:17:49.398Z,49.43
2022-12-19T08:20:16.287Z,50.08
2022-12-19T08:22:43.142Z,46.83
2022-12-19T08:25:11.894Z,47.33
2022-12-19T08:27:38.708Z,53.63
2022-12-19T08:30:06.913Z,50.60
2022-12-19T08:32:35.892Z,50.30
2022-12-19T08:35:02.772Z,44.55
2022-12-19T08:37:29.568Z,47.50
2022-12-19T08:39:56.335Z,45.97
2022-12-19T08:42:25.319Z,43.67
2022-12-19T08:44:52.040Z,40.95
2022-12-19T08:47:18.814Z,42.07
2022-12-19T08:49:45.704Z,45.33
2022-12-19T08:52:12.697Z,48.30
2022-12-19T08:54:39.537Z,40.00
2022-12-19T08:57:06.320Z,45.63
2022-12-19T08:59:33.190Z,45.43
2022-12-19T09:02:01.402Z,42.20
2022-12-19T09:06:02.643Z,46.17
2022-12-19T09:07:16.668Z,43.83
2022-12-19T09:09:44.521Z,44.33
2022-12-19T09:12:13.813Z,44.65
2022-12-19T09:14:41.659Z,38.53
2022-12-19T09:17:09.039Z,43.17
2022-12-19T09:19:35.957Z,40.90
2022-12-19T09:22:02.737Z,46.67
2022-12-19T09:24:30.723Z,40.93
2022-12-19T09:26:57.774Z,42.30
2022-12-19T09:29:25.144Z,44.13
2022-12-19T09:31:56.519Z,43.42
2022-12-19T09:34:37.198Z,42.92
2022-12-19T09:37:15.957Z,41.88
2022-12-19T09:39:48.674Z,48.97
2022-12-19T09:42:34.199Z,41.15
2022-12-19T09:45:33.174Z,49.03
2022-12-19T09:48:01.435Z,43.65
2022-12-19T09:50:52.160Z,44.30
2022-12-19T09:53:31.536Z,41.15
2022-12-19T09:56:00.772Z,43.78
2022-12-19T09:58:42.580Z,43.60
2022-12-19T10:01:24.477Z,44.40
2022-12-19T10:04:13.631Z,40.35
2022-12-19T10:07:13.982Z,37.45
2022-12-19T10:12:32.992Z,43.08
2022-12-19T10:12:52.827Z,43.53
2022-12-19T10:16:00.374Z,40.25
2022-12-19T10:18:33.252Z,40.05
2022-12-19T10:21:09.012Z,39.97
2022-12-19T10:23:55.742Z,39.92
2022-12-19T10:26:36.407Z,43.15
2022-12-19T10:29:07.409Z,34.10
2022-12-19T10:31:53.694Z,39.78
2022-12-19T10:34:32.766Z,41.40
2022-12-19T10:37:34.326Z,44.65
2022-12-19T10:40:29.028Z,45.90
2022-12-19T10:43:25.897Z,39.03
2022-12-19T10:46:02.649Z,40.05
2022-12-19T10:48:31.431Z,42.00
2022-12-19T10:51:00.650Z,40.72
2022-12-19T10:53:33.912Z,38.67
2022-12-19T10:56:11.434Z,42.85
2022-12-19T10:58:43.116Z,40.92
2022-12-19T11:01:16.011Z,37.13
2022-12-19T11:03:46.799Z,37.97
2022-12-19T11:06:41.720Z,41.35
2022-12-19T11:09:27.934Z,37.47
2022-12-19T11:15:19.984Z,36.33
2022-12-19T11:19:38.201Z,35.47
2022-12-19T11:24:19.075Z,41.05
2022-12-19T11:29:31.406Z,35.13
2022-12-19T11:29:37.049Z,36.88
2022-12-19T11:30:25.738Z,33.97
2022-12-19T11:32:45.109Z,37.47
2022-12-19T11:35:17.893Z,38.53
2022-12-19T11:37:58.509Z,35.38
2022-12-19T11:40:33.932Z,37.22
2022-12-19T11:43:43.280Z,33.90
2022-12-19T11:46:13.887Z,35.75
2022-12-19T11:48:52.406Z,36.50
2022-12-19T11:51:19.372Z,34.08
2022-12-19T11:54:00.837Z,40.40
2022-12-19T11:56:29.471Z,33.70
2022-12-19T11:59:00.645Z,33.45
2022-12-19T12:01:39.990Z,33.55
2022-12-19T12:04:15.751Z,34.97
2022-12-19T12:06:53.622Z,34.08
2022-12-19T12:16:14.742Z,33.15
2022-12-19T12:20:12.777Z,33.78
2022-12-19T12:31:00.950Z,37.05
2022-12-19T12:31:10.900Z,33.75
2022-12-19T12:31:43.268Z,28.77
2022-12-19T12:31:43.658Z,33.33
2022-12-19T12:32:04.346Z,31.95
2022-12-19T12:35:50.036Z,35.13
2022-12-19T12:41:04.900Z,31.08
2022-12-19T12:43:38.202Z,36.83
2022-12-19T12:46:17.617Z,34.20
2022-12-19T12:48:50.292Z,34.38
2022-12-19T12:51:18.581Z,33.28
2022-12-19T12:53:48.124Z,37.92
2022-12-19T12:56:17.710Z,31.08
2022-12-19T12:58:54.258Z,34.08
2022-12-19T13:01:35.422Z,29.35
2022-12-19T13:04:04.877Z,35.13
2022-12-19T13:06:38.158Z,31.60
2022-12-19T13:09:26.058Z,34.10
2022-12-19T13:12:50.837Z,33.67
2022-12-19T13:15:31.819Z,34.95
2022-12-19T13:18:27.759Z,35.72
2022-12-19T13:20:54.764Z,34.35
2022-12-19T13:23:29.745Z,41.33
2022-12-19T13:25:56.880Z,38.55
2022-12-19T13:28:23.768Z,38.10
2022-12-19T13:31:20.586Z,36.08
2022-12-19T13:33:52.001Z,40.22
2022-12-19T13:39:50.173Z,34.70
2022-12-19T13:40:11.398Z,34.53
2022-12-19T13:43:09.913Z,37.05
2022-12-19T13:45:41.603Z,34.72
2022-12-19T13:48:16.663Z,38.05
2022-12-19T13:50:48.055Z,41.88
2022-12-19T13:53:18.593Z,42.22
2022-12-19T13:55:46.165Z,39.38
2022-12-19T13:58:28.909Z,39.55
2022-12-19T14:01:02.511Z,40.00
2022-12-19T14:03:38.189Z,38.38
2022-12-19T14:06:19.658Z,47.33
2022-12-19T14:08:59.239Z,39.17
2022-12-19T14:13:45.960Z,36.83
2022-12-19T14:15:12.270Z,43.83
2022-12-19T14:17:37.241Z,51.13
2022-12-19T14:22:02.299Z,61.70
2022-12-19T14:23:36.861Z,47.20
2022-12-19T14:28:20.605Z,42.45
2022-12-19T14:29:45.390Z,44.50
2022-12-19T14:33:39.227Z,59.40
2022-12-19T14:39:18.157Z,48.70
2022-12-19T14:41:09.174Z,45.95
2022-12-19T14:43:59.709Z,51.92
2022-12-19T14:54:11.641Z,45.47
2022-12-19T14:54:16.487Z,70.15
2022-12-19T14:54:26.484Z,49.88
2022-12-19T14:56:04.703Z,48.80
2022-12-19T14:58:54.750Z,43.75
2022-12-19T15:01:28.655Z,55.13
2022-12-19T15:04:51.397Z,51.83
2022-12-19T15:07:07.028Z,44.08
2022-12-19T15:10:59.070Z,50.72
2022-12-19T15:14:47.323Z,49.95
2022-12-19T15:16:05.266Z,45.85
2022-12-19T15:18:42.686Z,45.53
2022-12-19T15:21:14.580Z,45.87
2022-12-19T15:23:44.383Z,49.97
2022-12-19T15:26:17.391Z,43.50
2022-12-19T15:28:50.216Z,45.33
2022-12-19T15:31:39.103Z,44.38
2022-12-19T15:34:40.470Z,50.92
2022-12-19T15:37:12.933Z,49.55
2022-12-19T15:39:42.115Z,48.95
2022-12-19T15:42:29.081Z,56.83
2022-12-19T15:44:58.823Z,49.28
2022-12-19T15:47:29.792Z,53.10
2022-12-19T15:49:58.242Z,50.20
2022-12-19T15:52:26.154Z,56.25
2022-12-19T15:54:53.005Z,82.90
2022-12-19T15:57:36.379Z,64.70
2022-12-19T16:00:07.889Z,54.60
2022-12-19T16:03:13.246Z,60.47
2022-12-19T16:05:24.057Z,48.67
2022-12-19T16:07:52.655Z,53.60
2022-12-19T16:10:19.548Z,51.25
2022-12-19T16:12:51.125Z,51.40
2022-12-19T16:15:29.831Z,54.15
2022-12-19T16:17:58.132Z,54.75
2022-12-19T16:20:27.873Z,56.00
2022-12-19T16:22:55.827Z,56.05
2022-12-19T16:25:48.256Z,89.22
2022-12-19T16:28:19.569Z,63.10
2022-12-19T16:30:50.365Z,57.72
2022-12-19T16:33:29.816Z,54.72
2022-12-19T16:36:06.258Z,55.80
2022-12-19T16:38:33.982Z,51.55
2022-12-19T16:41:01.770Z,57.42
2022-12-19T16:43:32.256Z,54.05
2022-12-19T16:46:01.603Z,115.63
2022-12-19T16:48:29.880Z,66.30
2022-12-19T16:50:58.617Z,64.18
2022-12-19T16:53:25.886Z,63.05
2022-12-19T16:55:54.082Z,61.95
2022-12-19T16:58:24.608Z,63.15
2022-12-19T17:00:54.778Z,53.05
2022-12-19T17:03:31.432Z,69.00
2022-12-19T17:06:01.199Z,57.78
2022-12-19T17:08:28.170Z,53.22
2022-12-19T17:10:55.436Z,53.45
2022-12-19T17:13:25.005Z,52.47
2022-12-19T17:15:57.156Z,85.85
2022-12-19T17:18:35.700Z,58.05
2022-12-19T17:21:02.639Z,61.42
2022-12-19T17:23:32.331Z,57.08
2022-12-19T17:26:00.715Z,56.75
2022-12-19T17:28:28.247Z,54.50
2022-12-19T17:30:57.653Z,55.83
2022-12-19T17:33:31.943Z,53.15
2022-12-19T17:36:00.854Z,48.15
2022-12-19T17:38:27.776Z,57.00
2022-12-19T17:40:54.701Z,51.17
2022-12-19T17:43:21.715Z,59.75
2022-12-19T17:45:50.726Z,57.35
2022-12-19T17:48:27.871Z,51.85
2022-12-19T17:50:55.568Z,55.65
2022-12-19T17:55:49.461Z,47.88
2022-12-19T17:58:17.314Z,55.25
2022-12-19T18:00:47.197Z,51.60
2022-12-19T18:03:21.773Z,60.45
2022-12-19T18:05:51.873Z,52.53
2022-12-19T18:08:29.007Z,64.20
2022-12-19T18:10:58.448Z,66.78
2022-12-19T18:13:28.267Z,72.95
2022-12-19T18:16:00.824Z,73.88
2022-12-19T18:18:33.439Z,82.47
2022-12-19T18:21:02.873Z,90.63
2022-12-19T18:23:30.835Z,108.82
2022-12-19T18:26:01.767Z,97.53
2022-12-19T18:28:31.168Z,93.10
2022-12-19T18:31:06.542Z,90.65
2022-12-19T18:33:38.999Z,101.65
2022-12-19T18:36:07.440Z,100.03
2022-12-19T18:38:40.249Z,97.70
2022-12-19T18:41:10.892Z,90.90
2022-12-19T18:43:37.853Z,94.00
2022-12-19T18:46:07.436Z,104.20
2022-12-19T18:48:37.509Z,105.32
2022-12-19T18:51:05.580Z,109.35
2022-12-19T18:53:35.825Z,117.25
2022-12-19T18:56:05.635Z,111.70
2022-12-19T18:58:35.871Z,100.43
2022-12-19T19:01:04.752Z,105.45
2022-12-19T19:03:40.283Z,97.15
2022-12-19T19:06:19.409Z,99.55
2022-12-19T19:08:46.424Z,99.57
2022-12-19T19:11:13.276Z,85.28
2022-12-19T19:13:42.170Z,84.93
2022-12-19T19:16:27.136Z,80.40
2022-12-19T19:18:55.997Z,73.90
2022-12-19T19:21:32.341Z,78.22
2022-12-19T19:24:05.980Z,76.55
2022-12-19T19:26:32.866Z,78.35
2022-12-19T19:28:59.643Z,87.80
2022-12-19T19:31:29.887Z,108.20
2022-12-19T19:34:03.466Z,85.15
2022-12-19T19:36:36.622Z,81.43
2022-12-19T19:39:05.328Z,87.70
2022-12-19T19:41:34.257Z,97.50
2022-12-19T19:44:01.348Z,75.82
2022-12-19T19:46:28.774Z,82.63
2022-12-19T19:48:56.007Z,77.78
2022-12-19T19:51:23.042Z,77.15
2022-12-19T19:53:51.008Z,76.30
2022-12-19T19:56:17.824Z,80.55
2022-12-19T19:58:44.770Z,78.47
2022-12-19T20:01:13.518Z,71.93
2022-12-19T20:03:42.007Z,76.03
2022-12-19T20:06:10.383Z,76.90
2022-12-19T20:08:39.977Z,75.75
2022-12-19T20:11:09.584Z,93.30
2022-12-19T20:13:37.702Z,65.80
2022-12-19T20:16:11.955Z,73.88
2022-12-19T20:18:40.147Z,81.10
2022-12-19T20:21:13.575Z,74.53
2022-12-19T20:23:42.812Z,93.82
2022-12-19T20:26:11.482Z,83.68
2022-12-19T20:28:45.618Z,86.75
2022-12-19T20:31:16.256Z,78.97
2022-12-19T20:33:43.139Z,79.15
2022-12-19T20:36:14.210Z,82.22
2022-12-19T20:38:41.459Z,85.82
2022-12-19T20:41:08.903Z,79.80
2022-12-19T20:43:37.671Z,80.20
2022-12-19T20:46:16.435Z,76.90
2022-12-19T20:48:44.982Z,73.38
2022-12-19T20:51:12.756Z,74.18
2022-12-19T20:53:41.775Z,73.28
2022-12-19T20:56:13.853Z,69.60
2022-12-19T20:58:40.777Z,137.68
2022-12-19T21:01:18.339Z,80.93
2022-12-19T21:03:45.821Z,79.97
2022-12-19T21:06:17.555Z,78.32
2022-12-19T21:08:44.928Z,73.90
2022-12-19T21:11:12.418Z,79.00
2022-12-19T21:13:39.763Z,76.57
2022-12-19T21:16:09.092Z,74.32
2022-12-19T21:18:39.519Z,72.95
2022-12-19T21:21:09.451Z,70.53
2022-12-19T21:23:37.310Z,70.25
2022-12-19T21:26:05.783Z,68.35
2022-12-19T21:28:33.176Z,64.20
2022-12-19T21:31:12.129Z,70.80
2022-12-19T21:33:40.394Z,67.78
2022-12-19T21:36:08.969Z,69.38
2022-12-19T21:41:18.784Z,82.47
2022-12-19T21:43:49.031Z,71.03
2022-12-19T21:46:17.808Z,73.40
2022-12-19T21:48:47.452Z,76.75
2022-12-19T21:51:15.855Z,72.57
2022-12-19T21:53:55.493Z,71.45
2022-12-19T21:56:30.414Z,71.00
2022-12-19T21:59:12.898Z,63.63
2022-12-19T22:01:41.928Z,61.13
2022-12-19T22:04:22.501Z,64.90
2022-12-19T22:06:50.566Z,67.22
2022-12-19T22:09:22.916Z,65.78
2022-12-19T22:11:50.582Z,75.38
2022-12-19T22:16:44.917Z,65.35
2022-12-19T22:19:19.941Z,65.13
2022-12-19T22:21:48.101Z,69.97
2022-12-19T22:24:16.559Z,65.18
2022-12-19T22:26:45.075Z,68.03
2022-12-19T22:29:15.178Z,66.53
2022-12-19T22:31:45.817Z,70.93
2022-12-19T22:34:15.382Z,65.72
2022-12-19T22:36:43.508Z,69.43
2022-12-19T22:39:14.097Z,66.03
2022-12-19T22:41:41.806Z,73.05
2022-12-19T22:44:17.287Z,74.32
2022-12-19T22:46:47.917Z,65.05
2022-12-19T22:49:15.076Z,64.72
2022-12-19T22:51:45.451Z,70.68
2022-12-19T22:54:14.971Z,68.47
2022-12-19T22:56:42.267Z,72.13
2022-12-19T22:59:12.011Z,63.40
2022-12-19T23:01:41.858Z,60.72
2022-12-19T23:04:12.565Z,67.28
2022-12-19T23:06:39.791Z,72.95
2022-12-19T23:09:10.066Z,58.83
2022-12-19T23:11:40.096Z,64.22
2022-12-19T23:14:11.228Z,63.88
2022-12-19T23:16:38.289Z,63.05
2022-12-19T23:19:09.033Z,74.78
2022-12-19T23:21:36.976Z,74.28
2022-12-19T23:24:05.700Z,76.30
2022-12-19T23:26:37.836Z,89.57
2022-12-19T23:29:13.622Z,76.07
2022-12-19T23:31:43.859Z,78.93
2022-12-19T23:34:11.032Z,73.85
2022-12-19T23:39:27.415Z,66.97
2022-12-19T23:41:54.209Z,59.80
2022-12-19T23:44:21.120Z,64.38
2022-12-19T23:46:48.068Z,66.93
2022-12-19T23:49:15.676Z,61.90
2022-12-19T23:54:09.790Z,73.03
2022-12-19T23:56:41.197Z,67.95
2022-12-19T23:59:08.041Z,67.85
